Leonidas Bakasetas

Chefscout - Olympiacos
29 Mai 2029
Dienstag
Verarbeitung

Persönlichkeit

Anpassungsfähigkeit (6) Ehrgeiz (17) Kontroverse (11) Loyalität (17) Druck (2) Professionalität (12) Fairness (6) Temperament (19)

Profil

Trainerstil Demokratisch
Lizenz Kontinentale B
Entschlossenheit 6
Menschenführung 9
Motivation 8
Disziplin 14
Arbeitszufriedenheit
95%
Ermüdung
0%
Rolle Chefscout
Gehalt 25.3K p/W
Vertrag 14.03.2030

Leistung

Verhalten Gut
Trainingseffektivität
46%
Spielerentwicklung
65%
Verletzungsprävention
45%
Taktische Umsetzung
40%

Aktuell beobachtet

130
Spieler Verein Status Fähigkeit Vertrauen Beobachtet Zuletzt beobachtet Letzte Stimme
Luis Otávio Sporting Kansas City Aktiv 111 / 118 40% 2 22.01.2029 -
Aidan Borland Mallorca Aktiv 113 / 126 40% 2 22.01.2029 -
Louis Page Hull City Aktiv 137 / 148 40% 1 22.01.2029 -
Matias Siltanen Kalmar FF Aktiv 128 / 138 40% 1 15.01.2029 -
Chupete Málaga Aktiv 145 / 141 40% 4 10.01.2029 -
Kevin Angulo Aguilas Doradas Aktiv 115 / 114 40% 1 10.01.2029 -
Diego Porcel Estudiantes Aktiv 134 / 139 40% 1 10.01.2029 -
Dimitris Emmanouilidis Levadiakos Aktiv 127 / 129 86% 1 08.01.2029 Befürworten
Dimitris Kaloskamis AEK Verloren 123 / 116 86% 1 07.01.2029 Befürworten
Mustafa Hekimoğlu Sivasspor Aktiv 134 / 140 40% 1 03.01.2029 -
João Borne Atletico Goianiense Aktiv 116 / 127 40% 1 03.01.2029 -
Ryan McAidoo Bristol City Aktiv 129 / 135 40% 1 03.01.2029 -
Hugo Camberos Leon Aktiv 140 / 133 40% 1 03.01.2029 -
Gilberto Mora Cruz Azul Aktiv 145 / 147 40% 1 03.01.2029 -
Leo Castledine Middlesbrough Aktiv 142 / 140 40% 1 01.01.2029 -
Vivaldo Semedo Watford Aktiv 131 / 129 40% 1 01.01.2029 -
Sebastian Rodriguez Minnesota United FC Aktiv 121 / 124 40% 2 30.08.2028 -
Idan Toklomati Charlotte Football Club Aktiv 119 / 130 40% 1 30.08.2028 -
Sifiso Khune FC Copenhagen Aktiv 127 / 132 40% 1 30.08.2028 -
Christopher Cupps San Diego Football Club Aktiv 119 / 121 40% 1 30.08.2028 -
Matheus Nascimento San Jose Earthquakes Aktiv 126 / 127 40% 1 22.08.2028 -
Santiago Villalba Barracas Central Aktiv 113 / 116 40% 1 22.08.2028 -
Yacine Goudjil CS Constantine Aktiv 105 / 111 40% 1 22.08.2028 -
Juan Pablo Hernández Cerro Largo Aktiv 97 / 102 40% 1 22.08.2028 -
Peyton Miller FC Cincinnati Aktiv 116 / 124 40% 1 22.08.2028 -
James Overy Melbourne Victory Aktiv 96 / 106 40% 1 22.08.2028 -
Renato Nhaga Galatasaray Aktiv 133 / 141 40% 1 14.08.2028 -
Kwesi Sorotu Badori Berekum Chelsea Aktiv 100 / 105 40% 1 14.08.2028 -
Lebogang Tau FC Tokyo Aktiv 123 / 118 40% 1 12.08.2028 -
Pau Sans Zaragoza Aktiv 127 / 138 40% 5 10.08.2028 -
Gabriël Misehouy Girona Aktiv 126 / 123 40% 3 10.08.2028 -
Alejo Veliz Bahia Aktiv 140 / 136 40% 1 10.08.2028 -
Sidiki Chérif Coventry City Aktiv 142 / 137 40% 5 09.08.2028 -
Alejo Sarco Oviedo Aktiv 129 / 127 40% 3 09.08.2028 -
Jovon Makama Norwich City Aktiv 132 / 136 40% 8 08.08.2028 -
Tammer Kumar West Bromwich Albion Aktiv 126 / 129 40% 3 08.08.2028 -
Harvey Blair Portsmouth Aktiv 128 / 133 40% 3 07.08.2028 -
Adrián Niño Málaga Aktiv 135 / 137 40% 3 07.08.2028 -
Jake Evans Huddersfield Town Aktiv 122 / 130 40% 2 04.08.2028 -
Dale Taylor Blackpool Aktiv 127 / 128 40% 3 04.08.2028 -
Malik Mothersille Stockport County Aktiv 122 / 122 40% 4 04.08.2028 -
Valerio Crespi Avellino Aktiv 120 / 116 40% 1 03.08.2028 -
Buba Sangaré Elche Aktiv 131 / 137 40% 3 01.08.2028 -
Tyreece Campbell Charlton Athletic Aktiv 133 / 121 40% 2 01.08.2028 -
Miguel Figueiredo Benfica Aktiv 120 / 127 40% 2 01.08.2028 -
Abubacarr Sedi Kinteh Al-Khaleej Aktiv 137 / 136 40% 3 01.08.2028 -
Daniel Banjaqui Benfica Aktiv 128 / 131 40% 2 31.07.2028 -
Peter Amidu Acquah Asante Kotoko Aktiv 101 / 102 40% 1 31.07.2028 -
Joel Ezra Enyimba Aktiv 102 / 104 40% 4 29.07.2028 -
Bernardo Lima Porto Aktiv 111 / 117 40% 4 29.07.2028 -
Jack Shorrock Port Vale Aktiv 106 / 106 40% 3 29.07.2028 -
Miguel Falé Pacos de Ferreira Aktiv 117 / 114 40% 1 29.07.2028 -
Igor Tyjon Blackburn Rovers Aktiv 124 / 132 40% 1 29.07.2028 -
Martín Jiménez Universidad de Concepcion Aktiv 103 / 109 40% 3 27.07.2028 -
Filipe Sousa Porto Aktiv 104 / 111 40% 2 27.07.2028 -
Jorge Salinas Racing Santander Aktiv 133 / 133 40% 2 25.07.2028 -
Jan Bürger Burton Albion Aktiv 125 / 133 40% 1 25.07.2028 -
Mahmoud Yaqoob Al Ain Aktiv 130 / 141 40% 3 24.07.2028 -
Héctor Fort Real Sociedad Aktiv 140 / 150 40% 2 23.07.2028 -
Adham Farid Ismaily Aktiv 95 / 116 40% 1 23.07.2028 -
Gerardo Del Vecchio Rah Ahan Aktiv 105 / 121 40% 1 21.07.2028 -
Cheveyo Tsawa Club Brugge Aktiv 127 / 139 40% 2 19.07.2028 -
Rhys Chadwick Peterborough United Aktiv 105 / 107 40% 1 19.07.2028 -
Owen Eames Milton Keynes Dons Aktiv 96 / 99 40% 1 18.07.2028 -
Jorthy Mokio Ajax Aktiv 132 / 148 40% 1 17.07.2028 -
Estanis Pedrola Oviedo Aktiv 128 / 136 40% 5 11.07.2028 -
August Priske Birmingham Aktiv 138 / 145 40% 3 07.07.2028 -
Kelly Saravanan Salford City Aktiv 122 / 126 40% 2 06.07.2028 -
Abu Kamara Chesterfield Aktiv 133 / 133 40% 1 06.07.2028 -
Konta Ismaily Aktiv 99 / 111 40% 1 03.07.2028 -
Adem Avdić TSC Aktiv 111 / 115 40% 1 03.07.2028 -
Federico Nardin Alcione Milano Aktiv 101 / 110 40% 1 02.07.2028 -
Mattia Mannini Juve Stabia Aktiv 118 / 122 40% 1 28.06.2028 -
Richard Koné Queens Park Rangers Aktiv 135 / 136 40% 1 27.06.2028 -
Pablo Sáenz Oviedo Aktiv 130 / 134 40% 1 01.06.2028 -
Scott Twine Bristol City Aktiv 135 / 127 40% 1 01.06.2028 -
Zini AEK Aktiv 126 / 131 79% 1 17.01.2028 Befürworten
Jesus Ferreira Seattle Sounders Aktiv 129 / 134 40% 1 01.01.2028 -
Vinicinho Bragantino Aktiv 135 / 138 40% 1 01.01.2028 -
Andy Irving Sparta Prague Aktiv 129 / 135 40% 2 23.06.2027 -
Cameron Pring Bristol City Aktiv 130 / 124 40% 1 23.06.2027 -
Kwadwo Baah Watford Aktiv 127 / 125 40% 1 02.06.2027 -
Samuele Birindelli Monza Aktiv 130 / 124 40% 1 02.06.2027 -
Marquinhos APOEL Aktiv 134 / 124 40% 3 31.01.2027 -
Manu García Aris Thessaloniki Aktiv 130 / 134 40% 1 31.01.2027 -
John Mercado Sparta Prague Aktiv 127 / 127 40% 2 29.01.2027 -
Bernard Tekpetey Ludogorets Aktiv 123 / 128 40% 1 26.01.2027 -
Oston O'runov Persepolis Aktiv 120 / 129 40% 3 25.01.2027 Beobachten
Milson Al Jazira Aktiv 133 / 131 40% 2 25.01.2027 Mehr Infos nötig
Lukáš Provod Slavia Prague Aktiv 145 / 143 40% 2 24.01.2027 -
Abbosbek Fayzullayev Basaksehir Aktiv 135 / 123 40% 1 24.01.2027 -
Atsuki Ito Bolton Wanderers Aktiv 127 / 130 40% 1 21.01.2027 -
Adam Armstrong Wolverhampton Aktiv 130 / 135 40% 2 20.01.2027 -
Manfred Ugalde Spartak Moscow Aktiv 132 / 132 40% 2 19.01.2027 -
Youssef En-Nesyri Zenit Aktiv 142 / 134 40% 2 16.01.2027 -
Oswin Appollis Orlando Pirates Aktiv 119 / 126 40% 1 16.01.2027 -
Aboubakary Koita AEK Aktiv 128 / 130 40% 1 16.01.2027 -
Oleksandr Zubkov AEK Aktiv 138 / 139 40% 1 13.01.2027 -
Emmanuel Boateng Hapoel Tel Aviv Aktiv 119 / 128 40% 1 13.01.2027 -
Gustavo Mantuan Zenit Aktiv 130 / 140 40% 1 12.01.2027 -
Mirlind Daku Spartak Moscow Aktiv 132 / 129 40% 1 11.01.2027 -
Viktor Dibusz Haladas Aktiv 121 / 121 40% 1 08.01.2027 -
Bitello Dinamo Moscow Aktiv 140 / 140 40% 1 06.01.2027 -
Oladapo Afolayan Blackburn Rovers Aktiv 121 / 126 40% 1 06.01.2027 -
Teboho Mokoena Mamelodi Sundowns Aktiv 136 / 136 40% 2 05.01.2027 -
Galeno Al-Ahli Aktiv 152 / 138 40% 1 03.01.2027 -
Gonzalo Plata Dinamo Moscow Aktiv 140 / 137 40% 2 01.01.2027 -
Alexey Miranchuk Atlanta United FC Aktiv 139 / 147 40% 1 30.08.2026 -
Dániel Gazdag Columbus Crew Aktiv 139 / 131 40% 1 29.08.2026 -
Herman Johansson FC Dallas Aktiv 131 / 115 40% 1 27.08.2026 -
Adrián Marín Orlando City Aktiv 125 / 121 40% 1 27.08.2026 -
Timo Werner San Jose Earthquakes Aktiv 135 / 140 40% 1 27.08.2026 -
Anton Salétros Chicago Fire Aktiv 132 / 119 40% 2 26.08.2026 -
Anders Dreyer San Diego Football Club Aktiv 134 / 120 40% 1 26.08.2026 -
Iván Angulo Orlando City Aktiv 122 / 116 40% 1 26.08.2026 -
Paxten Aaronson Colorado Rapids Aktiv 139 / 125 40% 2 25.08.2026 -
Marcel Hartel St. Louis CITY SC Aktiv 120 / 137 40% 1 23.08.2026 -
Veljko Birmančević Ferencvaros Aktiv 130 / 131 40% 3 21.08.2026 -
Rúben Neves Al-Hilal Aktiv 145 / 150 40% 3 14.08.2026 -
Merih Demiral Al-Ahli Aktiv 128 / 145 40% 3 12.08.2026 -
Mohamed Camara Maccabi Tel Aviv Aktiv 130 / 123 40% 1 12.08.2026 -
Mohamed Simakan Al-Nassr Aktiv 134 / 127 40% 2 10.08.2026 -
Saeid Beiranvand Padideh Aktiv 141 / 137 40% 2 09.08.2026 -
Jaime Seoane Al-Faisaly Aktiv 130 / 123 40% 1 09.08.2026 -
Yacine Adli Al-Shabab Aktiv 127 / 144 40% 1 04.08.2026 -
Théo Hernández Al-Hilal Aktiv 147 / 147 40% 1 04.08.2026 -
Valentino Lazaro Al Ain Aktiv 129 / 134 40% 1 03.08.2026 -
Eduard Spertsyan Al-Ahli Aktiv 147 / 148 40% 1 03.08.2026 -
Kaan Kairinen AEK Aktiv 125 / 121 40% 1 03.08.2026 -
Samú Al-Nassr Aktiv 134 / 140 40% 1 03.08.2026 -